createdAt,value
2019-06-27T00:00:59.822Z,7.80
2019-06-27T00:03:29.513Z,8.13
2019-06-27T00:05:58.878Z,7.27
2019-06-27T00:08:28.602Z,8.30
2019-06-27T00:10:57.927Z,9.70
2019-06-27T00:13:27.333Z,16.57
2019-06-27T00:15:56.619Z,9.33
2019-06-27T00:18:26.005Z,12.13
2019-06-27T00:20:58.030Z,7.10
2019-06-27T00:23:27.375Z,6.60
2019-06-27T00:25:56.776Z,8.53
2019-06-27T00:28:26.317Z,7.00
2019-06-27T00:30:56.174Z,9.50
2019-06-27T00:33:25.522Z,9.63
2019-06-27T00:35:55.382Z,12.43
2019-06-27T00:38:25.022Z,7.40
2019-06-27T00:40:54.524Z,8.30
2019-06-27T00:43:24.073Z,8.97
2019-06-27T00:45:53.690Z,8.70
2019-06-27T00:48:23.326Z,7.57
2019-06-27T00:50:52.572Z,10.30
2019-06-27T00:53:22.234Z,7.90
2019-06-27T00:55:51.969Z,8.93
2019-06-27T00:58:22.238Z,8.77
2019-06-27T01:00:51.559Z,11.83
2019-06-27T01:03:20.874Z,9.47
2019-06-27T01:05:50.522Z,8.80
2019-06-27T01:08:19.886Z,11.10
2019-06-27T01:10:51.866Z,13.67
2019-06-27T01:13:21.219Z,9.50
2019-06-27T01:15:50.752Z,7.83
2019-06-27T01:18:20.543Z,8.90
2019-06-27T01:20:50.251Z,9.03
2019-06-27T01:23:19.975Z,7.97
2019-06-27T01:25:49.930Z,8.67
2019-06-27T01:28:19.543Z,11.23
2019-06-27T01:30:49.151Z,14.80
2019-06-27T01:33:18.402Z,15.23
2019-06-27T01:35:48.254Z,8.30
2019-06-27T01:38:17.600Z,8.67
2019-06-27T01:40:47.194Z,8.50
2019-06-27T01:43:16.762Z,14.03
2019-06-27T01:45:52.830Z,10.60
2019-06-27T01:48:22.251Z,12.50
2019-06-27T01:50:51.573Z,9.67
2019-06-27T01:53:20.921Z,12.73
2019-06-27T01:55:50.277Z,9.63
2019-06-27T01:58:19.594Z,9.37
2019-06-27T02:00:49.200Z,11.63
2019-06-27T02:03:18.802Z,10.33
2019-06-27T02:05:48.420Z,10.43
2019-06-27T02:08:18.073Z,11.90
2019-06-27T02:10:47.722Z,8.33
2019-06-27T02:13:17.350Z,12.40
2019-06-27T02:15:46.981Z,11.27
2019-06-27T02:18:16.279Z,12.03
2019-06-27T02:20:45.585Z,9.57
2019-06-27T02:23:15.977Z,10.40
2019-06-27T02:25:45.525Z,12.70
2019-06-27T02:28:14.836Z,10.40
2019-06-27T02:30:44.823Z,15.53
2019-06-27T02:33:14.352Z,10.93
2019-06-27T02:35:44.032Z,10.23
2019-06-27T02:38:13.599Z,12.80
2019-06-27T02:40:42.877Z,15.23
2019-06-27T02:43:12.361Z,9.20
2019-06-27T02:45:41.654Z,11.83
2019-06-27T02:48:11.046Z,12.30
2019-06-27T02:50:40.280Z,10.80
2019-06-27T02:53:09.539Z,8.77
2019-06-27T02:55:39.247Z,14.47
2019-06-27T02:58:29.008Z,10.83
2019-06-27T03:00:40.889Z,13.30
2019-06-27T03:03:10.464Z,13.80
2019-06-27T03:05:39.762Z,19.40
2019-06-27T03:08:09.063Z,16.57
2019-06-27T03:10:38.363Z,14.73
2019-06-27T03:13:07.602Z,21.87
2019-06-27T03:15:37.238Z,20.00
2019-06-27T03:18:06.694Z,17.23
2019-06-27T03:20:36.432Z,20.20
2019-06-27T03:23:05.755Z,28.07
2019-06-27T03:25:35.655Z,17.80
2019-06-27T03:28:04.989Z,16.07
2019-06-27T03:30:34.775Z,18.00
2019-06-27T03:33:04.173Z,18.30
2019-06-27T03:35:33.621Z,16.13
2019-06-27T03:38:02.978Z,15.97
2019-06-27T03:40:32.869Z,20.20
2019-06-27T03:43:02.534Z,17.27
2019-06-27T03:45:32.208Z,17.07
2019-06-27T03:48:01.491Z,19.87
2019-06-27T03:50:30.834Z,14.20
2019-06-27T03:53:00.430Z,18.10
2019-06-27T03:55:30.063Z,17.13
2019-06-27T03:57:59.436Z,20.63
2019-06-27T04:00:33.311Z,21.53
2019-06-27T04:03:03.128Z,21.83
2019-06-27T04:05:32.917Z,21.07
2019-06-27T04:08:02.357Z,21.57
2019-06-27T04:10:31.686Z,20.70
2019-06-27T04:13:01.346Z,20.73
2019-06-27T04:15:30.684Z,20.50
2019-06-27T04:18:00.331Z,23.27
2019-06-27T04:20:29.662Z,20.43
2019-06-27T04:22:59.899Z,19.97
2019-06-27T04:25:30.116Z,25.07
2019-06-27T04:28:00.282Z,25.27
2019-06-27T04:30:30.362Z,25.83
2019-06-27T04:32:59.787Z,17.93
2019-06-27T04:35:29.911Z,21.20
2019-06-27T04:37:59.890Z,21.67
2019-06-27T04:40:29.280Z,22.40
2019-06-27T04:42:59.213Z,32.50
2019-06-27T04:45:29.319Z,25.33
2019-06-27T04:47:58.544Z,31.87
2019-06-27T04:50:28.350Z,20.87
2019-06-27T04:52:57.708Z,21.80
2019-06-27T04:55:27.534Z,26.87
2019-06-27T04:57:56.843Z,22.30
2019-06-27T05:00:29.718Z,37.53
2019-06-27T05:02:59.757Z,31.20
2019-06-27T05:05:29.137Z,32.97
2019-06-27T05:07:58.835Z,31.67
2019-06-27T05:10:28.743Z,36.37
2019-06-27T05:12:58.649Z,34.00
2019-06-27T05:15:27.978Z,48.70
2019-06-27T05:17:57.438Z,36.17
2019-06-27T05:20:26.977Z,40.10
2019-06-27T05:22:59.457Z,36.87
2019-06-27T05:25:29.887Z,36.80
2019-06-27T05:27:58.782Z,36.83
2019-06-27T05:30:28.156Z,36.40
2019-06-27T05:32:57.839Z,33.57
2019-06-27T05:35:27.319Z,37.20
2019-06-27T05:37:56.748Z,44.80
2019-06-27T05:40:26.665Z,43.33
2019-06-27T05:42:56.490Z,33.93
2019-06-27T05:45:25.920Z,40.30
2019-06-27T05:47:56.564Z,37.70
2019-06-27T05:50:26.347Z,41.20
2019-06-27T05:52:55.777Z,48.37
2019-06-27T05:55:25.094Z,47.57
2019-06-27T05:57:54.791Z,46.93
2019-06-27T06:00:29.006Z,51.00
2019-06-27T06:02:55.842Z,48.07
2019-06-27T06:05:25.285Z,45.90
2019-06-27T06:07:54.575Z,45.17
2019-06-27T06:10:24.550Z,52.80
2019-06-27T06:12:54.057Z,49.63
2019-06-27T06:15:23.374Z,64.53
2019-06-27T06:17:52.665Z,58.90
2019-06-27T06:20:23.051Z,66.67
2019-06-27T06:22:52.859Z,62.60
2019-06-27T06:25:22.966Z,60.33
2019-06-27T06:27:52.373Z,60.67
2019-06-27T06:30:23.054Z,71.13
2019-06-27T06:32:52.737Z,69.83
2019-06-27T06:35:21.977Z,64.07
2019-06-27T06:37:51.912Z,69.17
2019-06-27T06:40:22.152Z,63.40
2019-06-27T06:42:51.740Z,67.73
2019-06-27T06:45:21.243Z,72.83
2019-06-27T06:47:50.613Z,71.40
2019-06-27T06:50:23.419Z,63.03
2019-06-27T06:52:51.625Z,77.00
2019-06-27T06:55:20.947Z,75.23
2019-06-27T06:57:50.302Z,70.60
2019-06-27T07:00:19.785Z,77.70
2019-06-27T07:02:49.597Z,95.47
2019-06-27T07:05:18.918Z,80.37
2019-06-27T07:07:48.260Z,72.70
2019-06-27T07:10:17.892Z,81.20
2019-06-27T07:12:48.001Z,69.10
2019-06-27T07:15:17.250Z,78.97
2019-06-27T07:17:46.668Z,78.97
2019-06-27T07:20:17.852Z,72.93
2019-06-27T07:22:47.818Z,64.97
2019-06-27T07:25:17.242Z,68.13
2019-06-27T07:27:47.279Z,70.10
2019-06-27T07:30:16.967Z,69.70
2019-06-27T07:32:48.545Z,68.50
2019-06-27T07:35:18.796Z,69.63
2019-06-27T07:37:48.648Z,67.83
2019-06-27T07:40:17.990Z,73.03
2019-06-27T07:42:47.554Z,66.60
2019-06-27T07:45:16.965Z,60.83
2019-06-27T07:47:46.998Z,60.40
2019-06-27T07:50:18.170Z,66.00
2019-06-27T07:52:47.864Z,63.37
2019-06-27T07:55:17.569Z,57.20
2019-06-27T07:57:47.189Z,65.83
2019-06-27T08:00:16.769Z,55.20
2019-06-27T08:02:46.445Z,56.90
2019-06-27T08:05:16.189Z,58.50
2019-06-27T08:07:45.762Z,57.83
2019-06-27T08:10:15.370Z,57.47
2019-06-27T08:12:44.744Z,57.60
2019-06-27T08:15:16.050Z,50.27
2019-06-27T08:17:45.632Z,55.43
2019-06-27T08:20:15.813Z,50.30
2019-06-27T08:22:45.139Z,47.13
2019-06-27T08:25:15.664Z,44.97
2019-06-27T08:27:45.287Z,39.57
2019-06-27T08:30:14.849Z,40.00
2019-06-27T08:32:44.273Z,39.77
2019-06-27T08:35:13.708Z,40.00
2019-06-27T08:37:43.386Z,35.93
2019-06-27T08:40:13.234Z,50.40
2019-06-27T08:42:42.609Z,38.20
2019-06-27T08:45:12.257Z,41.93
2019-06-27T08:47:42.034Z,40.60
2019-06-27T08:50:13.088Z,33.37
2019-06-27T08:52:42.473Z,44.03
2019-06-27T08:55:12.178Z,33.33
2019-06-27T08:57:41.797Z,30.30
2019-06-27T09:00:11.797Z,32.77
2019-06-27T09:02:41.145Z,30.60
2019-06-27T09:05:11.873Z,32.50
2019-06-27T09:07:41.251Z,31.07
2019-06-27T09:10:11.562Z,32.67
2019-06-27T09:12:41.154Z,31.13
2019-06-27T09:18:24.869Z,30.10
2019-06-27T09:20:54.470Z,36.87
2019-06-27T09:23:44.324Z,31.40
2019-06-27T09:26:33.504Z,27.10
2019-06-27T09:29:22.837Z,39.33
2019-06-27T09:32:24.821Z,27.20
2019-06-27T09:35:03.697Z,32.07
2019-06-27T09:37:53.409Z,36.30
2019-06-27T09:40:43.878Z,29.10
2019-06-27T09:43:34.335Z,25.40
2019-06-27T09:46:24.387Z,27.47
2019-06-27T09:49:14.132Z,23.47
2019-06-27T09:52:04.118Z,27.70
2019-06-27T09:54:53.792Z,23.87
2019-06-27T09:57:23.103Z,23.17
2019-06-27T10:03:48.090Z,17.90
2019-06-27T10:06:37.915Z,18.67
2019-06-27T10:09:49.440Z,19.23
2019-06-27T10:12:42.922Z,18.00
2019-06-27T10:15:30.927Z,19.70
2019-06-27T10:18:15.134Z,20.23
2019-06-27T10:20:57.848Z,18.90
2019-06-27T10:23:39.014Z,19.67
2019-06-27T10:26:21.420Z,15.83
2019-06-27T10:29:07.020Z,22.33
2019-06-27T10:31:49.305Z,12.63
2019-06-27T10:34:33.269Z,20.17
2019-06-27T10:37:15.658Z,18.30
2019-06-27T10:39:57.434Z,10.50
2019-06-27T10:42:39.418Z,15.13
2019-06-27T10:48:06.712Z,17.30
2019-06-27T10:50:50.123Z,11.43
2019-06-27T10:53:32.021Z,16.50
2019-06-27T10:56:15.298Z,13.37
2019-06-27T10:58:57.674Z,12.43
2019-06-27T11:01:39.960Z,11.53
2019-06-27T11:04:22.528Z,14.60
2019-06-27T11:07:04.876Z,13.53
2019-06-27T11:09:50.331Z,12.30
2019-06-27T11:12:31.284Z,8.47
2019-06-27T11:15:00.522Z,16.40
2019-06-27T11:17:49.659Z,11.97
2019-06-27T11:20:39.563Z,11.50
2019-06-27T11:23:30.148Z,9.87
2019-06-27T11:26:20.009Z,7.83
2019-06-27T11:29:09.441Z,13.47
2019-06-27T11:31:59.364Z,9.13
2019-06-27T11:34:49.141Z,15.43
2019-06-27T11:37:18.815Z,9.83
2019-06-27T11:40:11.694Z,10.27
2019-06-27T11:42:59.967Z,12.97
2019-06-27T11:45:48.706Z,10.63
2019-06-27T11:48:39.155Z,9.47
2019-06-27T11:51:32.278Z,7.90
2019-06-27T11:54:22.630Z,8.93
2019-06-27T11:57:12.849Z,8.93
2019-06-27T12:00:03.665Z,6.83
2019-06-27T12:02:53.033Z,6.03
2019-06-27T12:05:43.453Z,8.50
2019-06-27T12:08:33.729Z,11.37
2019-06-27T12:11:24.322Z,8.30
2019-06-27T12:19:53.089Z,8.23
2019-06-27T12:22:35.597Z,13.73
2019-06-27T12:28:19.651Z,8.30
2019-06-27T12:31:20.064Z,9.30
2019-06-27T12:33:41.000Z,10.03
2019-06-27T12:36:10.413Z,13.70
2019-06-27T12:39:02.108Z,8.67
2019-06-27T12:41:51.165Z,9.10
2019-06-27T12:44:39.926Z,9.03
2019-06-27T12:47:50.102Z,12.27
2019-06-27T12:50:39.023Z,10.07
2019-06-27T12:53:29.493Z,10.73
2019-06-27T12:55:58.863Z,9.00
2019-06-27T12:58:28.224Z,8.37
2019-06-27T13:00:57.961Z,6.10
2019-06-27T13:03:47.614Z,5.73
2019-06-27T13:06:36.742Z,8.70
2019-06-27T13:09:27.273Z,6.60
2019-06-27T13:12:18.928Z,9.00
2019-06-27T13:15:07.865Z,7.40
2019-06-27T13:17:37.600Z,7.37
2019-06-27T13:20:26.680Z,6.87
2019-06-27T13:23:37.157Z,6.50
2019-06-27T13:26:47.170Z,7.33
2019-06-27T13:29:56.858Z,5.33
2019-06-27T13:32:45.699Z,5.43
2019-06-27T13:35:35.701Z,9.43
2019-06-27T13:38:25.485Z,6.37
2019-06-27T13:41:15.304Z,9.43
2019-06-27T13:44:05.025Z,5.87
2019-06-27T13:46:55.389Z,5.00
2019-06-27T13:49:45.902Z,7.30
2019-06-27T13:52:37.636Z,6.60
2019-06-27T13:55:28.089Z,5.40
2019-06-27T13:58:17.264Z,7.70
2019-06-27T14:01:09.948Z,12.60
2019-06-27T14:03:58.377Z,11.07
2019-06-27T14:06:48.486Z,8.23
2019-06-27T14:09:23.644Z,9.43
2019-06-27T14:14:59.884Z,7.40
2019-06-27T14:17:39.441Z,6.73
2019-06-27T14:20:49.932Z,4.87
2019-06-27T14:23:19.534Z,5.73
2019-06-27T14:26:09.208Z,7.60
2019-06-27T14:28:58.118Z,6.53
2019-06-27T14:31:49.299Z,4.90
2019-06-27T14:34:39.097Z,4.50
2019-06-27T14:37:28.536Z,3.53
2019-06-27T14:43:14.546Z,8.73
2019-06-27T14:46:04.597Z,8.50
2019-06-27T14:48:56.850Z,3.30
2019-06-27T14:51:46.109Z,4.10
2019-06-27T14:54:35.653Z,9.33
2019-06-27T14:57:25.497Z,4.40
2019-06-27T15:00:16.803Z,6.23
2019-06-27T15:03:05.215Z,7.47
2019-06-27T15:05:55.102Z,7.47
2019-06-27T15:08:44.572Z,6.00
2019-06-27T15:11:28.252Z,8.73
2019-06-27T15:14:11.638Z,3.10
2019-06-27T15:16:54.326Z,5.93
2019-06-27T15:19:38.445Z,5.47
2019-06-27T15:22:23.097Z,8.07
2019-06-27T15:25:06.903Z,4.67
2019-06-27T15:27:49.552Z,7.63
2019-06-27T15:30:30.811Z,5.40
2019-06-27T15:33:13.438Z,3.97
2019-06-27T15:35:55.451Z,6.60
2019-06-27T15:38:37.053Z,6.80
2019-06-27T15:41:20.661Z,3.63
2019-06-27T15:44:05.403Z,5.50
2019-06-27T15:46:49.667Z,7.90
2019-06-27T15:49:31.855Z,4.70
2019-06-27T15:52:17.661Z,7.83
2019-06-27T15:54:59.076Z,6.20
2019-06-27T15:57:40.919Z,9.33
2019-06-27T16:00:22.479Z,5.83
2019-06-27T16:03:07.254Z,4.63
2019-06-27T16:05:49.839Z,5.23
2019-06-27T16:08:32.231Z,7.07
2019-06-27T16:11:17.309Z,6.20
2019-06-27T16:14:00.567Z,4.20
2019-06-27T16:16:43.954Z,4.03
2019-06-27T16:19:26.036Z,5.10
2019-06-27T16:22:08.504Z,7.20
2019-06-27T16:24:51.661Z,5.60
2019-06-27T16:27:36.158Z,3.37
2019-06-27T16:30:19.642Z,5.43
2019-06-27T16:33:03.906Z,3.83
2019-06-27T16:35:46.394Z,3.57
2019-06-27T16:38:29.248Z,4.80
2019-06-27T16:41:11.998Z,3.90
2019-06-27T16:43:55.570Z,4.53
2019-06-27T16:46:38.676Z,4.63
2019-06-27T16:49:20.528Z,4.80
2019-06-27T16:52:02.727Z,5.67
2019-06-27T16:54:44.966Z,4.13
2019-06-27T16:57:26.166Z,3.10
2019-06-27T17:00:09.253Z,6.20
2019-06-27T17:02:51.894Z,9.33
2019-06-27T17:05:34.786Z,6.17
2019-06-27T17:08:19.076Z,5.77
2019-06-27T17:11:01.871Z,4.83
2019-06-27T17:13:45.292Z,5.40
2019-06-27T17:16:26.854Z,8.60
2019-06-27T17:19:09.814Z,3.00
2019-06-27T17:21:51.066Z,4.63
2019-06-27T17:24:32.813Z,5.30
2019-06-27T17:27:19.511Z,4.13
2019-06-27T17:30:02.415Z,3.77
2019-06-27T17:32:46.086Z,15.30
2019-06-27T17:35:30.865Z,7.10
2019-06-27T17:38:13.049Z,3.87
2019-06-27T17:40:55.117Z,6.00
2019-06-27T17:43:41.212Z,8.00
2019-06-27T17:46:22.337Z,3.37
2019-06-27T17:49:22.800Z,3.70
2019-06-27T17:51:52.741Z,3.53
2019-06-27T17:54:25.110Z,4.07
2019-06-27T17:57:14.841Z,4.47
2019-06-27T18:00:04.839Z,5.50
2019-06-27T18:02:54.802Z,3.73
2019-06-27T18:05:43.487Z,4.70
2019-06-27T18:08:32.826Z,8.00
2019-06-27T18:11:22.842Z,3.60
2019-06-27T18:14:05.772Z,6.17
2019-06-27T18:16:48.928Z,7.40
2019-06-27T18:19:34.724Z,5.70
2019-06-27T18:22:18.261Z,7.60
2019-06-27T18:24:48.090Z,4.00
2019-06-27T18:27:57.666Z,3.40
2019-06-27T18:30:46.513Z,4.57
2019-06-27T18:33:16.669Z,5.13
2019-06-27T18:36:05.886Z,3.30
2019-06-27T18:38:56.626Z,4.40
2019-06-27T18:41:45.348Z,3.77
2019-06-27T18:44:39.368Z,4.50
2019-06-27T18:47:30.511Z,5.03
2019-06-27T18:50:20.352Z,7.33
2019-06-27T18:53:11.032Z,4.90
2019-06-27T18:55:59.816Z,4.97
2019-06-27T18:58:49.965Z,4.20
2019-06-27T19:01:57.908Z,4.93
2019-06-27T19:04:27.215Z,6.97
2019-06-27T19:07:17.943Z,4.40
2019-06-27T19:10:07.057Z,3.30
2019-06-27T19:12:36.661Z,6.47
2019-06-27T19:22:26.959Z,5.00
2019-06-27T19:28:34.586Z,8.53
2019-06-27T19:31:25.019Z,4.23
2019-06-27T19:34:18.005Z,4.67
2019-06-27T19:36:47.961Z,4.30
2019-06-27T19:39:18.100Z,11.50
2019-06-27T19:41:47.748Z,5.80
2019-06-27T19:44:36.876Z,13.50
2019-06-27T19:47:27.200Z,5.53
2019-06-27T19:54:04.767Z,4.63
2019-06-27T19:56:56.406Z,7.70
2019-06-27T19:59:46.923Z,11.30
2019-06-27T20:02:36.742Z,15.57
2019-06-27T20:05:45.506Z,6.80
2019-06-27T20:08:27.845Z,15.93
2019-06-27T20:11:09.574Z,7.03
2019-06-27T20:13:51.769Z,5.07
2019-06-27T20:16:33.927Z,3.77
2019-06-27T20:19:16.686Z,10.17
2019-06-27T20:21:45.991Z,9.60
2019-06-27T20:24:35.820Z,6.70
2019-06-27T20:27:06.133Z,11.60
2019-06-27T20:29:56.169Z,6.80
2019-06-27T20:32:26.016Z,11.20
2019-06-27T20:35:16.070Z,7.00
2019-06-27T20:38:05.612Z,7.50
2019-06-27T20:40:55.273Z,8.60
2019-06-27T20:43:44.021Z,7.37
2019-06-27T20:46:37.215Z,7.53
2019-06-27T20:49:27.399Z,8.20
2019-06-27T20:52:17.319Z,6.67
2019-06-27T20:55:07.118Z,7.93
2019-06-27T20:57:55.822Z,7.70
2019-06-27T21:00:46.422Z,8.93
2019-06-27T21:03:36.344Z,10.53
2019-06-27T21:06:06.503Z,7.10
2019-06-27T21:08:51.975Z,6.60
2019-06-27T21:11:35.022Z,4.80
2019-06-27T21:14:17.365Z,7.53
2019-06-27T21:17:02.770Z,5.40
2019-06-27T21:19:46.298Z,6.00
2019-06-27T21:22:29.636Z,7.57
2019-06-27T21:25:11.174Z,5.87
2019-06-27T21:27:52.731Z,9.37
2019-06-27T21:30:35.498Z,10.83
2019-06-27T21:33:16.818Z,7.30
2019-06-27T21:35:59.383Z,5.27
2019-06-27T21:38:42.107Z,12.70
2019-06-27T21:41:24.905Z,11.30
2019-06-27T21:46:51.594Z,6.47
2019-06-27T21:49:33.730Z,7.90
2019-06-27T21:52:16.029Z,6.40
2019-06-27T21:54:45.674Z,6.30
2019-06-27T21:57:35.921Z,7.37
2019-06-27T22:00:27.749Z,7.90
2019-06-27T22:03:18.393Z,8.60
2019-06-27T22:06:07.766Z,8.70
2019-06-27T22:08:50.575Z,8.60
2019-06-27T22:11:33.348Z,7.50
2019-06-27T22:14:17.882Z,9.63
2019-06-27T22:16:47.296Z,9.40
2019-06-27T22:19:16.593Z,6.73
2019-06-27T22:21:46.005Z,9.27
2019-06-27T22:24:16.990Z,9.83
2019-06-27T22:26:51.205Z,5.70
2019-06-27T22:29:21.007Z,5.03
2019-06-27T22:31:50.938Z,6.70
2019-06-27T22:34:20.569Z,9.30
2019-06-27T22:36:50.871Z,8.77
2019-06-27T22:39:40.805Z,9.20
2019-06-27T22:42:26.642Z,6.80
2019-06-27T22:45:13.616Z,9.70
2019-06-27T22:48:00.720Z,6.90
2019-06-27T22:50:44.244Z,5.97
2019-06-27T22:53:16.430Z,7.37
2019-06-27T22:55:45.706Z,8.20
2019-06-27T22:58:15.050Z,6.17
2019-06-27T23:00:44.358Z,7.90
2019-06-27T23:03:13.979Z,5.37
2019-06-27T23:05:43.571Z,7.13
2019-06-27T23:08:13.065Z,10.50
2019-06-27T23:10:42.446Z,7.73
2019-06-27T23:13:12.445Z,5.50
2019-06-27T23:15:41.826Z,9.00
2019-06-27T23:18:11.162Z,9.40
2019-06-27T23:20:40.406Z,7.27
2019-06-27T23:23:09.805Z,6.57
2019-06-27T23:25:39.202Z,6.10
2019-06-27T23:28:08.401Z,16.43
2019-06-27T23:30:37.697Z,8.27
2019-06-27T23:33:09.720Z,7.90
2019-06-27T23:35:39.209Z,7.57
2019-06-27T23:38:08.509Z,7.30
2019-06-27T23:40:37.891Z,8.77
2019-06-27T23:43:07.599Z,6.67
2019-06-27T23:45:37.668Z,4.40
2019-06-27T23:48:06.969Z,6.40
2019-06-27T23:50:36.383Z,7.90
2019-06-27T23:53:05.625Z,9.17
2019-06-27T23:55:34.942Z,7.57
2019-06-27T23:58:05.014Z,4.83
